Terminal Aerodrome Forecast
Issued by NWS

Home | Current Version | Previous Version | Text Only | Print | Product List | Glossary On
Versions: 1 2 3 4 5 6 7 8 9 10
000
FTUS42 KMLB 191700
TAFLEE
TAF
KLEE 191720Z 1918/2018 10005KT P6SM SCT200 BKN250
     FM200900 VRB02KT 5SM BR BKN250
     FM201400 16003KT P6SM BKN250=

USA.gov is the U.S. government's official web portal to all federal, state and local government web resources and services.